sensor_id;sensor_type;location;lat;lon;timestamp;pressure;altitude;pressure_sealevel;temperature
80246;BMP280;69558;39.208;-77.226;2024-01-10T00:01:44;97723.97;;;15.06
80246;BMP280;69558;39.208;-77.226;2024-01-10T00:04:10;97726.56;;;15.06
80246;BMP280;69558;39.208;-77.226;2024-01-10T00:06:36;97740.44;;;15.06
80246;BMP280;69558;39.208;-77.226;2024-01-10T00:09:01;97752.66;;;15.06
80246;BMP280;69558;39.208;-77.226;2024-01-10T00:11:28;97766.75;;;15.05
80246;BMP280;69558;39.208;-77.226;2024-01-10T00:13:54;97784.00;;;15.06
80246;BMP280;69558;39.208;-77.226;2024-01-10T00:16:26;97808.50;;;15.05
80246;BMP280;69558;39.208;-77.226;2024-01-10T00:18:54;97777.84;;;15.00
80246;BMP280;69558;39.208;-77.226;2024-01-10T00:21:20;97791.25;;;15.04
80246;BMP280;69558;39.208;-77.226;2024-01-10T00:23:46;97789.44;;;15.04
80246;BMP280;69558;39.208;-77.226;2024-01-10T00:26:12;97800.66;;;15.05
80246;BMP280;69558;39.208;-77.226;2024-01-10T00:28:38;97805.88;;;15.05
80246;BMP280;69558;39.208;-77.226;2024-01-10T00:31:04;97814.72;;;15.04
80246;BMP280;69558;39.208;-77.226;2024-01-10T00:33:29;97793.84;;;15.04
80246;BMP280;69558;39.208;-77.226;2024-01-10T00:35:55;97795.94;;;15.02
80246;BMP280;69558;39.208;-77.226;2024-01-10T00:38:21;97800.13;;;15.03
80246;BMP280;69558;39.208;-77.226;2024-01-10T00:40:47;97782.66;;;15.03
80246;BMP280;69558;39.208;-77.226;2024-01-10T00:43:13;97745.84;;;14.93
80246;BMP280;69558;39.208;-77.226;2024-01-10T00:45:39;97702.16;;;15.00
80246;BMP280;69558;39.208;-77.226;2024-01-10T00:48:05;97686.50;;;15.00
80246;BMP280;69558;39.208;-77.226;2024-01-10T00:50:31;97672.00;;;15.04
80246;BMP280;69558;39.208;-77.226;2024-01-10T00:52:56;97617.97;;;15.05
80246;BMP280;69558;39.208;-77.226;2024-01-10T00:55:22;97577.25;;;15.04
80246;BMP280;69558;39.208;-77.226;2024-01-10T00:57:48;97541.66;;;14.98
80246;BMP280;69558;39.208;-77.226;2024-01-10T01:00:14;97518.50;;;15.01
80246;BMP280;69558;39.208;-77.226;2024-01-10T01:02:40;97502.63;;;15.03
80246;BMP280;69558;39.208;-77.226;2024-01-10T01:05:06;97493.19;;;15.02
80246;BMP280;69558;39.208;-77.226;2024-01-10T01:07:33;97467.91;;;15.02
80246;BMP280;69558;39.208;-77.226;2024-01-10T01:09:59;97452.44;;;15.01
80246;BMP280;69558;39.208;-77.226;2024-01-10T01:12:25;97429.78;;;15.01
80246;BMP280;69558;39.208;-77.226;2024-01-10T01:14:51;97395.03;;;15.01
80246;BMP280;69558;39.208;-77.226;2024-01-10T01:17:17;97395.03;;;15.01
80246;BMP280;69558;39.208;-77.226;2024-01-10T01:19:43;97387.00;;;15.02
80246;BMP280;69558;39.208;-77.226;2024-01-10T01:22:08;97265.38;;;15.01
80246;BMP280;69558;39.208;-77.226;2024-01-10T01:24:34;97294.63;;;15.03
80246;BMP280;69558;39.208;-77.226;2024-01-10T01:27:00;97235.66;;;15.02
80246;BMP280;69558;39.208;-77.226;2024-01-10T01:29:27;97274.22;;;15.00
80246;BMP280;69558;39.208;-77.226;2024-01-10T01:31:54;97315.75;;;15.02
80246;BMP280;69558;39.208;-77.226;2024-01-10T01:34:20;97289.66;;;15.02
80246;BMP280;69558;39.208;-77.226;2024-01-10T01:36:47;97294.63;;;15.03
80246;BMP280;69558;39.208;-77.226;2024-01-10T01:39:13;97284.19;;;15.03
80246;BMP280;69558;39.208;-77.226;2024-01-10T01:41:39;97284.88;;;14.99
80246;BMP280;69558;39.208;-77.226;2024-01-10T01:44:05;97252.34;;;15.01
80246;BMP280;69558;39.208;-77.226;2024-01-10T01:46:32;97228.34;;;15.04
80246;BMP280;69558;39.208;-77.226;2024-01-10T01:48:59;97238.78;;;15.04
80246;BMP280;69558;39.208;-77.226;2024-01-10T01:51:27;97263.06;;;15.05
80246;BMP280;69558;39.208;-77.226;2024-01-10T01:53:55;97244.59;;;15.06
80246;BMP280;69558;39.208;-77.226;2024-01-10T01:56:21;97251.72;;;15.11
80246;BMP280;69558;39.208;-77.226;2024-01-10T01:58:52;97230.59;;;15.12
80246;BMP280;69558;39.208;-77.226;2024-01-10T02:01:19;97244.50;;;15.18
80246;BMP280;69558;39.208;-77.226;2024-01-10T02:03:48;97250.03;;;15.21
80246;BMP280;69558;39.208;-77.226;2024-01-10T02:06:14;97251.38;;;15.24
80246;BMP280;69558;39.208;-77.226;2024-01-10T02:08:40;97242.31;;;15.26
80246;BMP280;69558;39.208;-77.226;2024-01-10T02:11:06;97233.97;;;15.30
80246;BMP280;69558;39.208;-77.226;2024-01-10T02:13:32;97240.28;;;15.34
80246;BMP280;69558;39.208;-77.226;2024-01-10T02:15:59;97241.16;;;15.39
80246;BMP280;69558;39.208;-77.226;2024-01-10T02:18:25;97237.53;;;15.40
80246;BMP280;69558;39.208;-77.226;2024-01-10T02:20:52;97230.56;;;15.46
80246;BMP280;69558;39.208;-77.226;2024-01-10T02:23:18;97195.34;;;15.48
80246;BMP280;69558;39.208;-77.226;2024-01-10T02:25:44;97191.41;;;15.46
80246;BMP280;69558;39.208;-77.226;2024-01-10T02:28:10;97178.34;;;15.46
80246;BMP280;69558;39.208;-77.226;2024-01-10T02:30:37;97197.19;;;15.48
80246;BMP280;69558;39.208;-77.226;2024-01-10T02:33:03;97205.00;;;15.48
80246;BMP280;69558;39.208;-77.226;2024-01-10T02:35:29;97218.31;;;15.46
80246;BMP280;69558;39.208;-77.226;2024-01-10T02:37:59;97229.00;;;15.45
80246;BMP280;69558;39.208;-77.226;2024-01-10T02:40:25;97182.25;;;15.43
80246;BMP280;69558;39.208;-77.226;2024-01-10T02:42:51;97185.88;;;15.42
80246;BMP280;69558;39.208;-77.226;2024-01-10T02:45:18;97172.81;;;15.42
80246;BMP280;69558;39.208;-77.226;2024-01-10T02:47:45;97162.63;;;15.41
80246;BMP280;69558;39.208;-77.226;2024-01-10T02:50:11;97154.00;;;15.40
80246;BMP280;69558;39.208;-77.226;2024-01-10T02:52:37;97145.94;;;15.42
80246;BMP280;69558;39.208;-77.226;2024-01-10T02:55:03;97138.09;;;15.42
80246;BMP280;69558;39.208;-77.226;2024-01-10T02:57:28;97119.03;;;15.41
80246;BMP280;69558;39.208;-77.226;2024-01-10T02:59:54;97109.81;;;15.39
80246;BMP280;69558;39.208;-77.226;2024-01-10T03:02:20;97099.38;;;15.39
80246;BMP280;69558;39.208;-77.226;2024-01-10T03:04:48;97101.78;;;15.40
80246;BMP280;69558;39.208;-77.226;2024-01-10T03:07:14;97092.63;;;15.38
80246;BMP280;69558;39.208;-77.226;2024-01-10T03:09:40;97100.16;;;15.39
80246;BMP280;69558;39.208;-77.226;2024-01-10T03:12:06;97074.88;;;15.40
80246;BMP280;69558;39.208;-77.226;2024-01-10T03:14:33;97085.31;;;15.40
80246;BMP280;69558;39.208;-77.226;2024-01-10T03:16:59;97101.00;;;15.40
80246;BMP280;69558;39.208;-77.226;2024-01-10T03:19:26;97099.16;;;15.40
80246;BMP280;69558;39.208;-77.226;2024-01-10T03:21:51;97111.44;;;15.40
80246;BMP280;69558;39.208;-77.226;2024-01-10T03:24:17;97110.63;;;15.39
80246;BMP280;69558;39.208;-77.226;2024-01-10T03:26:43;97106.22;;;15.40
80246;BMP280;69558;39.208;-77.226;2024-01-10T03:29:09;97105.41;;;15.39
80246;BMP280;69558;39.208;-77.226;2024-01-10T03:31:35;97098.38;;;15.40
80246;BMP280;69558;39.208;-77.226;2024-01-10T03:34:01;97097.56;;;15.39
80246;BMP280;69558;39.208;-77.226;2024-01-10T03:36:28;97108.00;;;15.39
80246;BMP280;69558;39.208;-77.226;2024-01-10T03:38:54;97111.19;;;15.41
80246;BMP280;69558;39.208;-77.226;2024-01-10T03:41:20;97108.59;;;15.41
80246;BMP280;69558;39.208;-77.226;2024-01-10T03:43:46;97097.09;;;15.42
80246;BMP280;69558;39.208;-77.226;2024-01-10T03:46:13;97098.38;;;15.40
80246;BMP280;69558;39.208;-77.226;2024-01-10T03:48:39;97095.78;;;15.40
80246;BMP280;69558;39.208;-77.226;2024-01-10T03:51:17;97099.38;;;15.39
80246;BMP280;69558;39.208;-77.226;2024-01-10T03:53:47;97107.00;;;15.40
80246;BMP280;69558;39.208;-77.226;2024-01-10T03:56:14;97088.72;;;15.40
80246;BMP280;69558;39.208;-77.226;2024-01-10T03:58:40;97086.91;;;15.41
80246;BMP280;69558;39.208;-77.226;2024-01-10T04:01:07;97077.19;;;15.36
80246;BMP280;69558;39.208;-77.226;2024-01-10T04:03:33;97071.44;;;15.39
80246;BMP280;69558;39.208;-77.226;2024-01-10T04:06:00;97067.25;;;15.38
80246;BMP280;69558;39.208;-77.226;2024-01-10T04:08:26;97051.53;;;15.33
80246;BMP280;69558;39.208;-77.226;2024-01-10T04:10:52;97059.44;;;15.38
80246;BMP280;69558;39.208;-77.226;2024-01-10T04:13:17;97057.88;;;15.37
80246;BMP280;69558;39.208;-77.226;2024-01-10T04:15:43;97061.28;;;15.38
80246;BMP280;69558;39.208;-77.226;2024-01-10T04:18:09;97049.25;;;15.37
80246;BMP280;69558;39.208;-77.226;2024-01-10T04:20:35;97048.47;;;15.36
80246;BMP280;69558;39.208;-77.226;2024-01-10T04:23:01;97040.66;;;15.36
80246;BMP280;69558;39.208;-77.226;2024-01-10T04:25:27;97040.84;;;15.35
80246;BMP280;69558;39.208;-77.226;2024-01-10T04:27:53;97046.91;;;15.35
80246;BMP280;69558;39.208;-77.226;2024-01-10T04:30:21;97036.16;;;15.32
80246;BMP280;69558;39.208;-77.226;2024-01-10T04:32:47;97041.91;;;15.34
80246;BMP280;69558;39.208;-77.226;2024-01-10T04:35:12;97046.31;;;15.33
80246;BMP280;69558;39.208;-77.226;2024-01-10T04:37:38;97041.63;;;15.30
80246;BMP280;69558;39.208;-77.226;2024-01-10T04:40:05;97042.16;;;15.32
80246;BMP280;69558;39.208;-77.226;2024-01-10T04:42:32;97045.28;;;15.34
80246;BMP280;69558;39.208;-77.226;2024-01-10T04:44:58;97039.56;;;15.32
80246;BMP280;69558;39.208;-77.226;2024-01-10T04:47:24;97039.81;;;15.31
80246;BMP280;69558;39.208;-77.226;2024-01-10T04:49:50;97050.00;;;15.32
80246;BMP280;69558;39.208;-77.226;2024-01-10T04:52:16;97049.22;;;15.32
80246;BMP280;69558;39.208;-77.226;2024-01-10T04:54:42;97051.03;;;15.31
80246;BMP280;69558;39.208;-77.226;2024-01-10T04:57:07;97042.41;;;15.31
80246;BMP280;69558;39.208;-77.226;2024-01-10T04:59:33;97043.97;;;15.32
80246;BMP280;69558;39.208;-77.226;2024-01-10T05:01:59;97055.47;;;15.31
80246;BMP280;69558;39.208;-77.226;2024-01-10T05:04:25;97050.25;;;15.31
80246;BMP280;69558;39.208;-77.226;2024-01-10T05:06:51;97057.28;;;15.30
80246;BMP280;69558;39.208;-77.226;2024-01-10T05:09:17;97056.47;;;15.30
80246;BMP280;69558;39.208;-77.226;2024-01-10T05:11:43;97071.91;;;15.31
80246;BMP280;69558;39.208;-77.226;2024-01-10T05:14:12;97081.56;;;15.31
80246;BMP280;69558;39.208;-77.226;2024-01-10T05:16:38;97086.00;;;15.30
80246;BMP280;69558;39.208;-77.226;2024-01-10T05:19:04;97073.72;;;15.31
80246;BMP280;69558;39.208;-77.226;2024-01-10T05:21:33;97072.13;;;15.30
80246;BMP280;69558;39.208;-77.226;2024-01-10T05:23:59;97071.13;;;15.31
80246;BMP280;69558;39.208;-77.226;2024-01-10T05:26:25;97081.78;;;15.29
80246;BMP280;69558;39.208;-77.226;2024-01-10T05:28:51;97078.91;;;15.25
80246;BMP280;69558;39.208;-77.226;2024-01-10T05:31:17;97082.34;;;15.31
80246;BMP280;69558;39.208;-77.226;2024-01-10T05:33:43;97085.19;;;15.30
80246;BMP280;69558;39.208;-77.226;2024-01-10T05:36:09;97090.19;;;15.31
80246;BMP280;69558;39.208;-77.226;2024-01-10T05:38:38;97096.19;;;15.32
80246;BMP280;69558;39.208;-77.226;2024-01-10T05:41:04;97091.50;;;15.34
80246;BMP280;69558;39.208;-77.226;2024-01-10T05:43:30;97094.69;;;15.36
80246;BMP280;69558;39.208;-77.226;2024-01-10T05:45:57;97104.88;;;15.37
80246;BMP280;69558;39.208;-77.226;2024-01-10T05:48:25;97097.34;;;15.41
80246;BMP280;69558;39.208;-77.226;2024-01-10T05:50:51;97109.13;;;15.43
80246;BMP280;69558;39.208;-77.226;2024-01-10T05:53:17;97103.13;;;15.43
80246;BMP280;69558;39.208;-77.226;2024-01-10T05:55:43;97114.41;;;15.48
80246;BMP280;69558;39.208;-77.226;2024-01-10T05:58:10;97117.88;;;15.54
80246;BMP280;69558;39.208;-77.226;2024-01-10T06:00:37;97118.16;;;15.57
80246;BMP280;69558;39.208;-77.226;2024-01-10T06:03:03;97121.34;;;15.60
80246;BMP280;69558;39.208;-77.226;2024-01-10T06:05:29;97119.25;;;15.62
80246;BMP280;69558;39.208;-77.226;2024-01-10T06:07:57;97121.94;;;15.67
80246;BMP280;69558;39.208;-77.226;2024-01-10T06:10:23;97120.69;;;15.69
80246;BMP280;69558;39.208;-77.226;2024-01-10T06:12:49;97119.38;;;15.72
80246;BMP280;69558;39.208;-77.226;2024-01-10T06:15:15;97118.63;;;15.71
80246;BMP280;69558;39.208;-77.226;2024-01-10T06:17:41;97134.59;;;15.75
80246;BMP280;69558;39.208;-77.226;2024-01-10T06:20:07;97143.72;;;15.77
80246;BMP280;69558;39.208;-77.226;2024-01-10T06:22:33;97150.78;;;15.77
80246;BMP280;69558;39.208;-77.226;2024-01-10T06:24:59;97164.91;;;15.76
80246;BMP280;69558;39.208;-77.226;2024-01-10T06:27:25;97186.59;;;15.76
80246;BMP280;69558;39.208;-77.226;2024-01-10T06:29:51;97186.84;;;15.75
80246;BMP280;69558;39.208;-77.226;2024-01-10T06:32:17;97195.47;;;15.75
80246;BMP280;69558;39.208;-77.226;2024-01-10T06:34:43;97183.44;;;15.74
80246;BMP280;69558;39.208;-77.226;2024-01-10T06:37:09;97212.97;;;15.75
80246;BMP280;69558;39.208;-77.226;2024-01-10T06:39:35;97214.00;;;15.74
80246;BMP280;69558;39.208;-77.226;2024-01-10T06:42:01;97229.09;;;15.72
80246;BMP280;69558;39.208;-77.226;2024-01-10T06:44:30;97237.72;;;15.72
80246;BMP280;69558;39.208;-77.226;2024-01-10T06:46:55;97235.38;;;15.71
80246;BMP280;69558;39.208;-77.226;2024-01-10T06:49:21;97233.78;;;15.70
80246;BMP280;69558;39.208;-77.226;2024-01-10T06:51:47;97230.16;;;15.71
80246;BMP280;69558;39.208;-77.226;2024-01-10T06:54:13;97234.00;;;15.68
80246;BMP280;69558;39.208;-77.226;2024-01-10T06:56:40;97236.06;;;15.66
80246;BMP280;69558;39.208;-77.226;2024-01-10T06:59:06;97237.66;;;15.67
80246;BMP280;69558;39.208;-77.226;2024-01-10T07:01:32;97237.13;;;15.65
80246;BMP280;69558;39.208;-77.226;2024-01-10T07:03:59;97246.78;;;15.65
80246;BMP280;69558;39.208;-77.226;2024-01-10T07:06:25;97242.28;;;15.60
80246;BMP280;69558;39.208;-77.226;2024-01-10T07:08:51;97247.00;;;15.63
80246;BMP280;69558;39.208;-77.226;2024-01-10T07:11:17;97243.84;;;15.61
80246;BMP280;69558;39.208;-77.226;2024-01-10T07:13:44;97251.94;;;15.60
80246;BMP280;69558;39.208;-77.226;2024-01-10T07:16:10;97239.66;;;15.60
80246;BMP280;69558;39.208;-77.226;2024-01-10T07:18:36;97241.50;;;15.60
80246;BMP280;69558;39.208;-77.226;2024-01-10T07:21:03;97250.88;;;15.61
80246;BMP280;69558;39.208;-77.226;2024-01-10T07:23:29;97250.88;;;15.61
80246;BMP280;69558;39.208;-77.226;2024-01-10T07:25:58;97260.00;;;15.58
80246;BMP280;69558;39.208;-77.226;2024-01-10T07:28:24;97258.16;;;15.58
80246;BMP280;69558;39.208;-77.226;2024-01-10T07:30:50;97260.56;;;15.60
80246;BMP280;69558;39.208;-77.226;2024-01-10T07:33:18;97256.81;;;15.56
80246;BMP280;69558;39.208;-77.226;2024-01-10T07:35:44;97272.25;;;15.57
80246;BMP280;69558;39.208;-77.226;2024-01-10T07:38:10;97274.88;;;15.57
80246;BMP280;69558;39.208;-77.226;2024-01-10T07:40:36;97283.72;;;15.56
80246;BMP280;69558;39.208;-77.226;2024-01-10T07:43:02;97291.56;;;15.56
80246;BMP280;69558;39.208;-77.226;2024-01-10T07:45:29;97292.59;;;15.55
80246;BMP280;69558;39.208;-77.226;2024-01-10T07:47:55;97298.63;;;15.56
80246;BMP280;69558;39.208;-77.226;2024-01-10T07:50:21;97302.50;;;15.53
80246;BMP280;69558;39.208;-77.226;2024-01-10T07:52:49;97312.69;;;15.55
80246;BMP280;69558;39.208;-77.226;2024-01-10T07:55:15;97316.34;;;15.54
80246;BMP280;69558;39.208;-77.226;2024-01-10T07:57:41;97318.97;;;15.54
80246;BMP280;69558;39.208;-77.226;2024-01-10T08:00:09;97317.38;;;15.53
80246;BMP280;69558;39.208;-77.226;2024-01-10T08:02:38;97328.59;;;15.53
80246;BMP280;69558;39.208;-77.226;2024-01-10T08:05:06;97338.25;;;15.53
80246;BMP280;69558;39.208;-77.226;2024-01-10T08:07:38;97343.50;;;15.53
80246;BMP280;69558;39.208;-77.226;2024-01-10T08:10:06;97335.34;;;15.49
80246;BMP280;69558;39.208;-77.226;2024-01-10T08:12:32;97345.78;;;15.49
80246;BMP280;69558;39.208;-77.226;2024-01-10T08:14:59;97338.97;;;15.48
80246;BMP280;69558;39.208;-77.226;2024-01-10T08:17:24;97334.56;;;15.49
80246;BMP280;69558;39.208;-77.226;2024-01-10T08:19:51;97349.19;;;15.50
80246;BMP280;69558;39.208;-77.226;2024-01-10T08:22:17;97344.13;;;15.43
80246;BMP280;69558;39.208;-77.226;2024-01-10T08:24:45;97338.97;;;15.48
80246;BMP280;69558;39.208;-77.226;2024-01-10T08:27:11;97342.84;;;15.46
80246;BMP280;69558;39.208;-77.226;2024-01-10T08:29:37;97349.66;;;15.47
80246;BMP280;69558;39.208;-77.226;2024-01-10T08:32:04;97356.72;;;15.46
80246;BMP280;69558;39.208;-77.226;2024-01-10T08:34:30;97360.34;;;15.45
80246;BMP280;69558;39.208;-77.226;2024-01-10T08:36:56;97354.09;;;15.46
80246;BMP280;69558;39.208;-77.226;2024-01-10T08:39:21;97360.56;;;15.44
80246;BMP280;69558;39.208;-77.226;2024-01-10T08:41:50;97374.91;;;15.41
80246;BMP280;69558;39.208;-77.226;2024-01-10T08:44:16;97385.91;;;15.43
80246;BMP280;69558;39.208;-77.226;2024-01-10T08:46:42;97384.31;;;15.42
80246;BMP280;69558;39.208;-77.226;2024-01-10T08:49:08;97391.13;;;15.43
80246;BMP280;69558;39.208;-77.226;2024-01-10T08:51:35;97389.47;;;15.37
80246;BMP280;69558;39.208;-77.226;2024-01-10T08:54:01;97386.66;;;15.44
80246;BMP280;69558;39.208;-77.226;2024-01-10T08:56:27;97391.88;;;15.44
80246;BMP280;69558;39.208;-77.226;2024-01-10T08:58:54;97396.81;;;15.40
80246;BMP280;69558;39.208;-77.226;2024-01-10T09:01:21;97395.00;;;15.41
80246;BMP280;69558;39.208;-77.226;2024-01-10T09:03:48;97395.00;;;15.41
80246;BMP280;69558;39.208;-77.226;2024-01-10T09:06:14;97400.00;;;15.42
80246;BMP280;69558;39.208;-77.226;2024-01-10T09:08:42;97392.59;;;15.39
80246;BMP280;69558;39.208;-77.226;2024-01-10T09:11:09;97384.75;;;15.39
80246;BMP280;69558;39.208;-77.226;2024-01-10T09:13:35;97395.78;;;15.41
80246;BMP280;69558;39.208;-77.226;2024-01-10T09:16:04;97403.03;;;15.39
80246;BMP280;69558;39.208;-77.226;2024-01-10T09:18:30;97396.81;;;15.40
80246;BMP280;69558;39.208;-77.226;2024-01-10T09:20:55;97394.75;;;15.42
80246;BMP280;69558;39.208;-77.226;2024-01-10T09:23:21;97400.78;;;15.43
80246;BMP280;69558;39.208;-77.226;2024-01-10T09:25:47;97407.13;;;15.47
80246;BMP280;69558;39.208;-77.226;2024-01-10T09:28:13;97406.09;;;15.48
80246;BMP280;69558;39.208;-77.226;2024-01-10T09:30:39;97410.59;;;15.52
80246;BMP280;69558;39.208;-77.226;2024-01-10T09:33:05;97414.56;;;15.55
80246;BMP280;69558;39.208;-77.226;2024-01-10T09:35:31;97427.16;;;15.58
80246;BMP280;69558;39.208;-77.226;2024-01-10T09:37:57;97439.66;;;15.56
80246;BMP280;69558;39.208;-77.226;2024-01-10T09:40:24;97446.09;;;15.65
80246;BMP280;69558;39.208;-77.226;2024-01-10T09:42:53;97443.47;;;15.65
80246;BMP280;69558;39.208;-77.226;2024-01-10T09:45:23;97448.44;;;15.67
80246;BMP280;69558;39.208;-77.226;2024-01-10T09:47:54;97459.16;;;15.65
80246;BMP280;69558;39.208;-77.226;2024-01-10T09:50:21;97457.56;;;15.64
80246;BMP280;69558;39.208;-77.226;2024-01-10T09:52:51;97467.00;;;15.65
80246;BMP280;69558;39.208;-77.226;2024-01-10T09:55:21;97473.25;;;15.64
80246;BMP280;69558;39.208;-77.226;2024-01-10T09:57:47;97470.84;;;15.63
80246;BMP280;69558;39.208;-77.226;2024-01-10T10:00:15;97471.63;;;15.63
80246;BMP280;69558;39.208;-77.226;2024-01-10T10:02:41;97471.06;;;15.61
80246;BMP280;69558;39.208;-77.226;2024-01-10T10:05:16;97473.94;;;15.60
80246;BMP280;69558;39.208;-77.226;2024-01-10T10:10:11;97496.88;;;15.57
80246;BMP280;69558;39.208;-77.226;2024-01-10T10:15:17;97486.66;;;15.56
80246;BMP280;69558;39.208;-77.226;2024-01-10T10:17:45;97485.31;;;15.53
80246;BMP280;69558;39.208;-77.226;2024-01-10T10:20:13;97489.19;;;15.51
80246;BMP280;69558;39.208;-77.226;2024-01-10T10:22:39;97485.22;;;15.48
80246;BMP280;69558;39.208;-77.226;2024-01-10T10:25:05;97492.81;;;15.50
80246;BMP280;69558;39.208;-77.226;2024-01-10T10:27:31;97505.09;;;15.49
80246;BMP280;69558;39.208;-77.226;2024-01-10T10:29:59;97502.72;;;15.48
80246;BMP280;69558;39.208;-77.226;2024-01-10T10:32:26;97509.53;;;15.49
80246;BMP280;69558;39.208;-77.226;2024-01-10T10:34:52;97527.00;;;15.48
80246;BMP280;69558;39.208;-77.226;2024-01-10T10:37:18;97527.25;;;15.47
80246;BMP280;69558;39.208;-77.226;2024-01-10T10:39:44;97536.09;;;15.46
80246;BMP280;69558;39.208;-77.226;2024-01-10T10:42:10;97540.53;;;15.45
80246;BMP280;69558;39.208;-77.226;2024-01-10T10:44:38;97539.19;;;15.43
80246;BMP280;69558;39.208;-77.226;2024-01-10T10:47:09;97548.13;;;15.47
80246;BMP280;69558;39.208;-77.226;2024-01-10T10:49:43;97546.75;;;15.44
80246;BMP280;69558;39.208;-77.226;2024-01-10T10:52:13;97543.34;;;15.44
80246;BMP280;69558;39.208;-77.226;2024-01-10T10:54:39;97551.19;;;15.44
80246;BMP280;69558;39.208;-77.226;2024-01-10T10:57:05;97558.47;;;15.42
80246;BMP280;69558;39.208;-77.226;2024-01-10T10:59:34;97557.69;;;15.41
80246;BMP280;69558;39.208;-77.226;2024-01-10T11:02:01;97558.72;;;15.40
80246;BMP280;69558;39.208;-77.226;2024-01-10T11:04:27;97552.69;;;15.40
80246;BMP280;69558;39.208;-77.226;2024-01-10T11:06:54;97558.91;;;15.39
80246;BMP280;69558;39.208;-77.226;2024-01-10T11:09:21;97557.59;;;15.36
80246;BMP280;69558;39.208;-77.226;2024-01-10T11:14:43;97575.63;;;15.38
80246;BMP280;69558;39.208;-77.226;2024-01-10T11:25:20;97608.44;;;15.45
80246;BMP280;69558;39.208;-77.226;2024-01-10T11:27:45;97621.03;;;15.48
80246;BMP280;69558;39.208;-77.226;2024-01-10T11:30:13;97616.59;;;15.49
80246;BMP280;69558;39.208;-77.226;2024-01-10T11:32:39;97627.13;;;15.54
80246;BMP280;69558;39.208;-77.226;2024-01-10T11:35:10;97632.94;;;15.56
80246;BMP280;69558;39.208;-77.226;2024-01-10T11:37:44;97636.69;;;15.60
80246;BMP280;69558;39.208;-77.226;2024-01-10T11:40:11;97645.28;;;15.61
80246;BMP280;69558;39.208;-77.226;2024-01-10T11:42:42;97653.50;;;15.64
80246;BMP280;69558;39.208;-77.226;2024-01-10T11:45:08;97652.00;;;15.56
80246;BMP280;69558;39.208;-77.226;2024-01-10T11:47:34;97668.38;;;15.64
80246;BMP280;69558;39.208;-77.226;2024-01-10T11:50:02;97666.75;;;15.63
80246;BMP280;69558;39.208;-77.226;2024-01-10T11:52:36;97676.63;;;15.61
80246;BMP280;69558;39.208;-77.226;2024-01-10T11:55:02;97687.53;;;15.57
80246;BMP280;69558;39.208;-77.226;2024-01-10T11:57:30;97682.91;;;15.48
80246;BMP280;69558;39.208;-77.226;2024-01-10T11:59:59;97703.44;;;15.56
80246;BMP280;69558;39.208;-77.226;2024-01-10T12:02:26;97705.50;;;15.54
80246;BMP280;69558;39.208;-77.226;2024-01-10T12:04:54;97723.78;;;15.54
80246;BMP280;69558;39.208;-77.226;2024-01-10T12:07:21;97728.44;;;15.52
80246;BMP280;69558;39.208;-77.226;2024-01-10T12:09:47;97720.16;;;15.43
80246;BMP280;69558;39.208;-77.226;2024-01-10T12:12:14;97737.31;;;15.51
80246;BMP280;69558;39.208;-77.226;2024-01-10T12:14:40;97744.34;;;15.50
80246;BMP280;69558;39.208;-77.226;2024-01-10T12:17:06;97745.81;;;15.46
80246;BMP280;69558;39.208;-77.226;2024-01-10T12:19:36;97745.22;;;15.44
80246;BMP280;69558;39.208;-77.226;2024-01-10T12:22:05;97746.28;;;15.43
80246;BMP280;69558;39.208;-77.226;2024-01-10T12:24:32;97759.91;;;15.45
80246;BMP280;69558;39.208;-77.226;2024-01-10T12:26:59;97778.53;;;15.49
80246;BMP280;69558;39.208;-77.226;2024-01-10T12:29:25;97774.53;;;15.46
80246;BMP280;69558;39.208;-77.226;2024-01-10T12:31:52;97784.41;;;15.44
80246;BMP280;69558;39.208;-77.226;2024-01-10T12:34:19;97798.72;;;15.42
80246;BMP280;69558;39.208;-77.226;2024-01-10T12:36:47;97812.31;;;15.44
80246;BMP280;69558;39.208;-77.226;2024-01-10T12:39:14;97823.56;;;15.44
80246;BMP280;69558;39.208;-77.226;2024-01-10T12:41:41;97827.00;;;15.45
80246;BMP280;69558;39.208;-77.226;2024-01-10T12:44:07;97828.00;;;15.44
80246;BMP280;69558;39.208;-77.226;2024-01-10T12:46:33;97833.03;;;15.45
80246;BMP280;69558;39.208;-77.226;2024-01-10T12:49:03;97836.63;;;15.44
80246;BMP280;69558;39.208;-77.226;2024-01-10T12:51:31;97853.34;;;15.43
80246;BMP280;69558;39.208;-77.226;2024-01-10T12:53:59;97843.91;;;15.42
80246;BMP280;69558;39.208;-77.226;2024-01-10T12:56:26;97855.16;;;15.43
80246;BMP280;69558;39.208;-77.226;2024-01-10T12:58:53;97868.22;;;15.43
80246;BMP280;69558;39.208;-77.226;2024-01-10T13:01:23;97876.28;;;15.41
80246;BMP280;69558;39.208;-77.226;2024-01-10T13:03:50;97880.91;;;15.39
80246;BMP280;69558;39.208;-77.226;2024-01-10T13:06:17;97884.78;;;15.37
80246;BMP280;69558;39.208;-77.226;2024-01-10T13:08:44;97893.97;;;15.39
80246;BMP280;69558;39.208;-77.226;2024-01-10T13:11:11;97905.22;;;15.40
80246;BMP280;69558;39.208;-77.226;2024-01-10T13:13:37;97919.75;;;15.36
80246;BMP280;69558;39.208;-77.226;2024-01-10T13:16:04;97931.00;;;15.36
80246;BMP280;69558;39.208;-77.226;2024-01-10T13:18:30;97935.63;;;15.34
80246;BMP280;69558;39.208;-77.226;2024-01-10T13:20:56;97954.50;;;15.36
80246;BMP280;69558;39.208;-77.226;2024-01-10T13:23:22;97963.34;;;15.35
80246;BMP280;69558;39.208;-77.226;2024-01-10T13:25:53;97964.94;;;15.36
80246;BMP280;69558;39.208;-77.226;2024-01-10T13:28:19;97972.56;;;15.38
80246;BMP280;69558;39.208;-77.226;2024-01-10T13:30:45;97975.94;;;15.38
80246;BMP280;69558;39.208;-77.226;2024-01-10T13:33:11;97979.81;;;15.36
80246;BMP280;69558;39.208;-77.226;2024-01-10T13:35:37;97987.66;;;15.36
80246;BMP280;69558;39.208;-77.226;2024-01-10T13:38:04;98003.72;;;15.33
80246;BMP280;69558;39.208;-77.226;2024-01-10T13:40:31;98000.44;;;15.25
80246;BMP280;69558;39.208;-77.226;2024-01-10T13:43:00;98024.63;;;15.33
80246;BMP280;69558;39.208;-77.226;2024-01-10T13:45:29;98025.19;;;15.35
80246;BMP280;69558;39.208;-77.226;2024-01-10T13:47:55;98034.31;;;15.32
80246;BMP280;69558;39.208;-77.226;2024-01-10T13:50:21;98033.88;;;15.35
80246;BMP280;69558;39.208;-77.226;2024-01-10T13:52:47;98025.19;;;15.35
80246;BMP280;69558;39.208;-77.226;2024-01-10T13:55:13;98014.19;;;15.33
80246;BMP280;69558;39.208;-77.226;2024-01-10T13:57:39;98014.44;;;15.31